createdAt,value
2022-11-24T00:02:21.024Z,100.00
2022-11-24T00:04:48.615Z,100.00
2022-11-24T00:07:16.120Z,100.00
2022-11-24T00:09:43.586Z,100.00
2022-11-24T00:12:12.446Z,100.00
2022-11-24T00:14:39.913Z,100.00
2022-11-24T00:17:07.399Z,100.00
2022-11-24T00:19:34.995Z,100.00
2022-11-24T00:22:02.437Z,100.00
2022-11-24T00:24:29.912Z,100.00
2022-11-24T00:26:57.362Z,100.00
2022-11-24T00:29:26.255Z,100.00
2022-11-24T00:31:53.706Z,100.00
2022-11-24T00:34:21.175Z,100.00
2022-11-24T00:36:48.628Z,100.00
2022-11-24T00:39:16.325Z,100.00
2022-11-24T00:41:43.946Z,100.00
2022-11-24T00:44:11.464Z,100.00
2022-11-24T00:46:40.394Z,100.00
2022-11-24T00:49:08.155Z,100.00
2022-11-24T00:51:35.653Z,100.00
2022-11-24T00:54:03.188Z,100.00
2022-11-24T00:56:30.770Z,100.00
2022-11-24T00:58:58.263Z,100.00
2022-11-24T01:01:26.411Z,100.00
2022-11-24T01:03:55.844Z,100.00
2022-11-24T01:06:24.040Z,100.00
2022-11-24T01:08:51.766Z,100.00
2022-11-24T01:11:20.198Z,100.00
2022-11-24T01:13:48.164Z,100.00
2022-11-24T01:16:16.434Z,100.00
2022-11-24T01:18:43.965Z,100.00
2022-11-24T01:21:12.785Z,100.00
2022-11-24T01:23:40.235Z,100.00
2022-11-24T01:26:07.852Z,100.00
2022-11-24T01:28:35.326Z,100.00
2022-11-24T01:31:03.244Z,100.00
2022-11-24T01:33:30.754Z,100.00
2022-11-24T01:35:58.245Z,100.00
2022-11-24T01:38:27.465Z,100.00
2022-11-24T01:41:01.148Z,100.00
2022-11-24T01:43:28.609Z,100.00
2022-11-24T01:45:56.075Z,100.00
2022-11-24T01:48:27.755Z,100.00
2022-11-24T01:50:57.011Z,100.00
2022-11-24T01:53:24.467Z,100.00
2022-11-24T01:55:53.277Z,100.00
2022-11-24T01:58:21.303Z,100.00
2022-11-24T02:00:48.748Z,100.00
2022-11-24T02:03:16.922Z,100.00
2022-11-24T02:05:44.828Z,100.00
2022-11-24T02:08:14.496Z,100.00
2022-11-24T02:10:41.948Z,100.00
2022-11-24T02:13:11.160Z,100.00
2022-11-24T02:15:38.623Z,100.00
2022-11-24T02:18:06.283Z,100.00
2022-11-24T02:20:34.103Z,100.00
2022-11-24T02:23:02.703Z,100.00
2022-11-24T02:25:32.203Z,100.00
2022-11-24T02:28:01.395Z,100.00
2022-11-24T02:30:28.919Z,100.00
2022-11-24T02:32:56.381Z,100.00
2022-11-24T02:35:24.403Z,100.00
2022-11-24T02:37:51.880Z,100.00
2022-11-24T02:40:20.135Z,100.00
2022-11-24T02:42:47.659Z,100.00
2022-11-24T02:45:16.535Z,100.00
2022-11-24T02:47:43.971Z,100.00
2022-11-24T02:50:11.463Z,100.00
2022-11-24T02:52:38.907Z,100.00
2022-11-24T02:55:06.463Z,100.00
2022-11-24T02:57:33.964Z,100.00
2022-11-24T03:00:01.451Z,100.00
2022-11-24T03:02:30.710Z,100.00
2022-11-24T03:04:58.187Z,100.00
2022-11-24T03:07:25.784Z,100.00
2022-11-24T03:09:53.234Z,100.00
2022-11-24T03:12:20.705Z,100.00
2022-11-24T03:14:48.140Z,100.00
2022-11-24T03:17:15.627Z,100.00
2022-11-24T03:19:44.418Z,100.00
2022-11-24T03:22:13.880Z,100.00
2022-11-24T03:24:41.354Z,100.00
2022-11-24T03:27:08.919Z,100.00
2022-11-24T03:29:36.364Z,100.00
2022-11-24T03:32:03.961Z,100.00
2022-11-24T03:34:31.685Z,100.00
2022-11-24T03:37:00.679Z,100.00
2022-11-24T03:39:28.120Z,100.00
2022-11-24T03:41:55.628Z,100.00
2022-11-24T03:44:23.098Z,100.00
2022-11-24T03:46:51.879Z,100.00
2022-11-24T03:49:19.389Z,100.00
2022-11-24T03:51:46.868Z,100.00
2022-11-24T03:54:15.679Z,100.00
2022-11-24T03:56:43.708Z,100.00
2022-11-24T03:59:11.188Z,100.00
2022-11-24T04:01:38.750Z,100.00
2022-11-24T04:04:06.394Z,100.00
2022-11-24T04:06:33.868Z,100.00
2022-11-24T04:09:01.342Z,100.00
2022-11-24T04:11:47.372Z,100.00
2022-11-24T04:14:14.919Z,100.00
2022-11-24T04:16:42.399Z,100.00
2022-11-24T04:19:09.850Z,100.00
2022-11-24T04:21:37.303Z,100.00
2022-11-24T04:24:04.845Z,100.00
2022-11-24T04:26:33.736Z,100.00
2022-11-24T04:29:01.171Z,100.00
2022-11-24T04:31:28.697Z,100.00
2022-11-24T04:33:56.178Z,100.00
2022-11-24T04:36:23.724Z,100.00
2022-11-24T04:39:24.541Z,100.00
2022-11-24T04:41:41.760Z,100.00
2022-11-24T04:44:09.213Z,100.00
2022-11-24T04:46:36.734Z,100.00
2022-11-24T04:49:04.287Z,100.00
2022-11-24T04:51:31.778Z,100.00
2022-11-24T04:53:59.260Z,100.00
2022-11-24T04:56:26.724Z,100.00
2022-11-24T04:58:55.535Z,100.00
2022-11-24T05:01:23.012Z,100.00
2022-11-24T05:03:50.563Z,100.00
2022-11-24T05:06:18.037Z,100.00
2022-11-24T05:08:47.786Z,100.00
2022-11-24T05:11:14.430Z,100.00
2022-11-24T05:13:41.880Z,100.00
2022-11-24T05:16:10.763Z,100.00
2022-11-24T05:18:38.924Z,100.00
2022-11-24T05:21:06.503Z,100.00
2022-11-24T05:23:33.925Z,100.00
2022-11-24T05:26:01.788Z,100.00
2022-11-24T05:28:29.509Z,100.00
2022-11-24T05:30:59.649Z,100.00
2022-11-24T05:33:29.997Z,100.00
2022-11-24T05:36:00.752Z,100.00
2022-11-24T05:38:29.598Z,100.00
2022-11-24T05:41:00.578Z,100.00
2022-11-24T05:43:28.042Z,100.00
2022-11-24T05:45:55.581Z,100.00
2022-11-24T05:48:23.041Z,100.00
2022-11-24T05:50:55.432Z,100.00
2022-11-24T05:53:22.892Z,100.00
2022-11-24T05:55:50.419Z,100.00
2022-11-24T05:58:18.079Z,100.00
2022-11-24T06:00:45.526Z,100.00
2022-11-24T06:03:13.080Z,100.00
2022-11-24T06:05:40.655Z,100.00
2022-11-24T06:08:09.471Z,100.00
2022-11-24T06:10:37.045Z,100.00
2022-11-24T06:13:07.208Z,100.00
2022-11-24T06:15:34.753Z,100.00
2022-11-24T06:18:02.297Z,100.00
2022-11-24T06:20:32.624Z,100.00
2022-11-24T06:23:01.024Z,100.00
2022-11-24T06:25:30.087Z,100.00
2022-11-24T06:27:57.544Z,100.00
2022-11-24T06:30:25.043Z,100.00
2022-11-24T06:32:55.335Z,100.00
2022-11-24T06:35:22.824Z,100.00
2022-11-24T06:37:50.328Z,100.00
2022-11-24T06:40:18.095Z,100.00
2022-11-24T06:42:52.571Z,100.00
2022-11-24T06:45:20.048Z,100.00
2022-11-24T06:47:47.550Z,100.00
2022-11-24T06:50:15.115Z,100.00
2022-11-24T06:52:42.634Z,100.00
2022-11-24T06:55:10.331Z,100.00
2022-11-24T06:57:37.843Z,100.00
2022-11-24T07:00:07.841Z,100.00
2022-11-24T07:02:35.452Z,100.00
2022-11-24T07:05:03.025Z,100.00
2022-11-24T07:07:30.560Z,100.00
2022-11-24T07:09:58.109Z,100.00
2022-11-24T07:12:25.648Z,100.00
2022-11-24T07:14:53.144Z,100.00
2022-11-24T07:17:22.124Z,100.00
2022-11-24T07:19:49.579Z,100.00
2022-11-24T07:22:17.132Z,100.00
2022-11-24T07:24:44.611Z,100.00
2022-11-24T07:27:12.152Z,100.00
2022-11-24T07:29:39.709Z,100.00
2022-11-24T07:32:07.366Z,100.00
2022-11-24T07:34:36.637Z,100.00
2022-11-24T07:37:04.443Z,100.00
2022-11-24T07:39:31.980Z,100.00
2022-11-24T07:41:59.440Z,100.00
2022-11-24T07:44:26.955Z,100.00
2022-11-24T07:46:54.436Z,100.00
2022-11-24T07:49:21.982Z,100.00
2022-11-24T07:51:50.803Z,100.00
2022-11-24T07:54:18.306Z,100.00
2022-11-24T07:56:45.845Z,100.00
2022-11-24T07:59:13.309Z,100.00
2022-11-24T08:01:41.002Z,100.00
2022-11-24T08:04:08.571Z,100.00
2022-11-24T08:06:40.932Z,100.00
2022-11-24T08:09:13.468Z,100.00
2022-11-24T08:11:41.439Z,100.00
2022-11-24T08:14:09.055Z,100.00
2022-11-24T08:16:36.607Z,100.00
2022-11-24T08:19:04.061Z,100.00
2022-11-24T08:21:32.490Z,100.00
2022-11-24T08:23:59.917Z,100.00
2022-11-24T08:26:28.785Z,100.00
2022-11-24T08:28:56.949Z,100.00
2022-11-24T08:31:24.924Z,100.00
2022-11-24T08:33:52.692Z,100.00
2022-11-24T08:36:20.314Z,100.00
2022-11-24T08:38:48.921Z,100.00
2022-11-24T08:41:16.970Z,100.00
2022-11-24T08:43:45.863Z,100.00
2022-11-24T08:46:16.853Z,100.00
2022-11-24T08:48:44.904Z,100.00
2022-11-24T08:51:12.892Z,100.00
2022-11-24T08:53:40.611Z,100.00
2022-11-24T08:56:08.581Z,100.00
2022-11-24T08:58:36.454Z,100.00
2022-11-24T09:01:08.984Z,100.00
2022-11-24T09:03:37.648Z,100.00
2022-11-24T09:06:05.432Z,100.00
2022-11-24T09:08:33.151Z,100.00
2022-11-24T09:11:01.254Z,100.00
2022-11-24T09:13:28.733Z,100.00
2022-11-24T09:15:56.285Z,100.00
2022-11-24T09:18:29.959Z,100.00
2022-11-24T09:21:06.540Z,100.00
2022-11-24T09:23:34.075Z,100.00
2022-11-24T09:26:03.920Z,100.00
2022-11-24T09:28:31.399Z,100.00
2022-11-24T09:31:01.216Z,100.00
2022-11-24T09:33:29.994Z,100.00
2022-11-24T09:35:58.892Z,100.00
2022-11-24T09:38:26.532Z,100.00
2022-11-24T09:40:56.474Z,100.00
2022-11-24T09:43:25.024Z,100.00
2022-11-24T09:46:08.074Z,100.00
2022-11-24T09:48:36.382Z,100.00
2022-11-24T09:51:05.472Z,100.00
2022-11-24T09:53:33.354Z,100.00
2022-11-24T09:56:01.846Z,100.00
2022-11-24T09:58:32.482Z,100.00
2022-11-24T10:01:00.032Z,100.00
2022-11-24T10:03:28.668Z,100.00
2022-11-24T10:05:56.152Z,100.00
2022-11-24T10:08:36.776Z,100.00
2022-11-24T10:11:04.827Z,100.00
2022-11-24T10:13:39.728Z,100.00
2022-11-24T10:16:09.134Z,100.00
2022-11-24T10:18:43.302Z,100.00
2022-11-24T10:21:14.837Z,100.00
2022-11-24T10:23:47.128Z,100.00
2022-11-24T10:26:17.344Z,100.00
2022-11-24T10:28:46.566Z,100.00
2022-11-24T10:31:17.616Z,100.00
2022-11-24T10:33:45.166Z,100.00
2022-11-24T10:36:13.314Z,99.80
2022-11-24T10:38:42.747Z,100.00
2022-11-24T10:41:13.317Z,100.00
2022-11-24T10:43:40.816Z,100.00
2022-11-24T10:46:10.736Z,100.00
2022-11-24T10:48:39.929Z,98.47
2022-11-24T10:51:13.783Z,100.00
2022-11-24T10:53:41.332Z,100.00
2022-11-24T10:56:08.855Z,100.00
2022-11-24T10:58:38.784Z,100.00
2022-11-24T11:01:21.556Z,100.00
2022-11-24T11:03:49.879Z,100.00
2022-11-24T11:06:22.212Z,100.00
2022-11-24T11:08:49.767Z,100.00
2022-11-24T11:11:21.693Z,100.00
2022-11-24T11:14:01.568Z,99.77
2022-11-24T11:16:33.989Z,100.00
2022-11-24T11:19:15.704Z,98.43
2022-11-24T11:21:50.732Z,97.20
2022-11-24T11:24:18.387Z,95.88
2022-11-24T11:26:45.926Z,99.24
2022-11-24T11:34:53.200Z,100.00
2022-11-24T11:37:21.065Z,100.00
2022-11-24T11:39:49.334Z,100.00
2022-11-24T11:42:45.471Z,100.00
2022-11-24T11:45:11.788Z,100.00
2022-11-24T11:47:39.689Z,100.00
2022-11-24T11:50:12.766Z,100.00
2022-11-24T11:52:52.199Z,100.00
2022-11-24T11:55:37.784Z,100.00
2022-11-24T11:58:08.481Z,100.00
2022-11-24T12:00:38.180Z,100.00
2022-11-24T12:03:26.486Z,99.55
2022-11-24T12:05:56.847Z,97.82
2022-11-24T12:08:27.216Z,100.00
2022-11-24T12:10:55.526Z,100.00
2022-11-24T12:13:33.405Z,100.00
2022-11-24T12:16:04.329Z,99.60
2022-11-24T12:18:56.672Z,95.69
2022-11-24T12:21:26.267Z,95.31
2022-11-24T12:23:57.421Z,91.65
2022-11-24T12:26:26.481Z,97.90
2022-11-24T12:28:56.770Z,100.00
2022-11-24T12:31:27.288Z,95.53
2022-11-24T12:34:01.503Z,95.35
2022-11-24T12:36:33.509Z,94.94
2022-11-24T12:39:03.186Z,92.50
2022-11-24T12:41:41.727Z,93.76
2022-11-24T12:44:11.413Z,97.95
2022-11-24T12:46:41.635Z,92.51
2022-11-24T12:49:11.221Z,90.17
2022-11-24T12:51:39.512Z,89.88
2022-11-24T12:54:07.684Z,90.71
2022-11-24T12:56:36.981Z,90.42
2022-11-24T12:59:10.093Z,89.29
2022-11-24T13:01:39.201Z,93.13
2022-11-24T13:04:11.609Z,92.09
2022-11-24T13:06:45.872Z,92.11
2022-11-24T13:09:16.499Z,91.53
2022-11-24T13:11:44.344Z,89.11
2022-11-24T13:14:19.178Z,90.88
2022-11-24T13:17:13.456Z,91.40
2022-11-24T13:19:39.323Z,90.75
2022-11-24T13:22:17.215Z,90.54
2022-11-24T13:24:45.037Z,91.07
2022-11-24T13:27:29.081Z,88.29
2022-11-24T13:29:56.583Z,92.75
2022-11-24T13:32:53.153Z,97.44
2022-11-24T13:35:22.078Z,100.00
2022-11-24T13:37:53.193Z,100.00
2022-11-24T13:40:45.935Z,100.00
2022-11-24T13:43:24.787Z,100.00
2022-11-24T13:45:53.715Z,100.00
2022-11-24T13:48:39.855Z,100.00
2022-11-24T13:51:15.053Z,100.00
2022-11-24T13:53:43.115Z,100.00
2022-11-24T13:56:20.585Z,100.00
2022-11-24T13:58:48.702Z,100.00
2022-11-24T14:01:17.307Z,100.00
2022-11-24T14:04:07.136Z,100.00
2022-11-24T14:06:36.216Z,100.00
2022-11-24T14:09:06.031Z,100.00
2022-11-24T14:11:33.552Z,100.00
2022-11-24T14:14:01.079Z,100.00
2022-11-24T14:16:28.650Z,100.00
2022-11-24T14:18:56.165Z,100.00
2022-11-24T14:21:24.836Z,100.00
2022-11-24T14:23:54.829Z,100.00
2022-11-24T14:26:22.947Z,100.00
2022-11-24T14:28:50.765Z,100.00
2022-11-24T14:31:25.128Z,100.00
2022-11-24T14:34:07.407Z,100.00
2022-11-24T14:36:34.984Z,100.00
2022-11-24T14:39:03.975Z,100.00
2022-11-24T14:41:31.419Z,100.00
2022-11-24T14:44:08.272Z,100.00
2022-11-24T14:46:35.856Z,100.00
2022-11-24T14:49:03.462Z,100.00
2022-11-24T14:51:31.679Z,100.00
2022-11-24T14:53:59.904Z,100.00
2022-11-24T14:56:29.575Z,100.00
2022-11-24T14:58:57.528Z,100.00
2022-11-24T15:01:30.254Z,100.00
2022-11-24T15:04:17.865Z,100.00
2022-11-24T15:07:12.487Z,100.00
2022-11-24T15:09:43.851Z,100.00
2022-11-24T15:12:28.813Z,100.00
2022-11-24T15:14:56.871Z,100.00
2022-11-24T15:17:25.196Z,100.00
2022-11-24T15:19:53.186Z,100.00
2022-11-24T15:22:37.414Z,100.00
2022-11-24T15:25:05.196Z,100.00
2022-11-24T15:27:34.004Z,100.00
2022-11-24T15:30:01.542Z,100.00
2022-11-24T15:32:29.113Z,100.00
2022-11-24T15:34:56.605Z,100.00
2022-11-24T15:37:24.118Z,100.00
2022-11-24T15:39:51.613Z,100.00
2022-11-24T15:42:19.069Z,100.00
2022-11-24T15:44:47.973Z,100.00
2022-11-24T15:47:15.463Z,100.00
2022-11-24T15:49:42.915Z,100.00
2022-11-24T15:52:10.429Z,100.00
2022-11-24T15:54:37.920Z,100.00
2022-11-24T15:57:05.466Z,100.00
2022-11-24T15:59:33.889Z,100.00
2022-11-24T16:02:02.775Z,100.00
2022-11-24T16:04:32.271Z,100.00
2022-11-24T16:07:00.610Z,100.00
2022-11-24T16:09:28.119Z,100.00
2022-11-24T16:11:55.862Z,100.00
2022-11-24T16:14:23.454Z,100.00
2022-11-24T16:16:51.276Z,100.00
2022-11-24T16:19:20.138Z,100.00
2022-11-24T16:21:48.276Z,100.00
2022-11-24T16:24:15.894Z,100.00
2022-11-24T16:26:43.374Z,100.00
2022-11-24T16:29:10.905Z,100.00
2022-11-24T16:31:38.729Z,100.00
2022-11-24T16:34:06.309Z,100.00
2022-11-24T16:36:35.195Z,100.00
2022-11-24T16:39:02.942Z,100.00
2022-11-24T16:41:30.390Z,100.00
2022-11-24T16:43:58.015Z,100.00
2022-11-24T16:46:26.017Z,100.00
2022-11-24T16:48:54.896Z,100.00
2022-11-24T16:51:22.829Z,100.00
2022-11-24T16:53:51.857Z,100.00
2022-11-24T16:56:19.327Z,100.00
2022-11-24T16:58:46.812Z,100.00
2022-11-24T17:01:14.591Z,100.00
2022-11-24T17:03:42.198Z,100.00
2022-11-24T17:06:11.277Z,100.00
2022-11-24T17:08:39.771Z,100.00
2022-11-24T17:11:08.691Z,100.00
2022-11-24T17:13:36.228Z,100.00
2022-11-24T17:16:04.683Z,100.00
2022-11-24T17:18:32.304Z,100.00
2022-11-24T17:21:03.187Z,100.00
2022-11-24T17:23:33.648Z,100.00
2022-11-24T17:26:04.399Z,100.00
2022-11-24T17:28:33.253Z,100.00
2022-11-24T17:31:00.739Z,100.00
2022-11-24T17:33:29.192Z,100.00
2022-11-24T17:35:57.082Z,100.00
2022-11-24T17:38:24.541Z,100.00
2022-11-24T17:40:52.299Z,100.00
2022-11-24T17:43:19.783Z,100.00
2022-11-24T17:45:49.631Z,100.00
2022-11-24T17:48:17.179Z,100.00
2022-11-24T17:50:44.697Z,100.00
2022-11-24T17:53:12.262Z,100.00
2022-11-24T17:55:40.631Z,100.00
2022-11-24T17:58:08.080Z,100.00
2022-11-24T18:00:35.757Z,100.00
2022-11-24T18:03:05.367Z,100.00
2022-11-24T18:05:36.208Z,100.00
2022-11-24T18:08:03.672Z,100.00
2022-11-24T18:10:32.667Z,100.00
2022-11-24T18:13:00.124Z,100.00
2022-11-24T18:15:27.598Z,100.00
2022-11-24T18:17:55.147Z,100.00
2022-11-24T18:20:23.965Z,100.00
2022-11-24T18:23:05.015Z,100.00
2022-11-24T18:25:33.340Z,100.00
2022-11-24T18:28:00.867Z,100.00
2022-11-24T18:30:28.347Z,100.00
2022-11-24T18:32:55.784Z,100.00
2022-11-24T18:35:24.833Z,100.00
2022-11-24T18:37:52.364Z,100.00
2022-11-24T18:40:20.064Z,100.00
2022-11-24T18:42:47.560Z,100.00
2022-11-24T18:45:15.102Z,100.00
2022-11-24T18:47:42.621Z,100.00
2022-11-24T18:50:10.320Z,100.00
2022-11-24T18:52:39.213Z,100.00
2022-11-24T18:55:07.094Z,100.00
2022-11-24T18:57:34.573Z,100.00
2022-11-24T19:00:02.165Z,100.00
2022-11-24T19:02:29.762Z,100.00
2022-11-24T19:04:57.320Z,100.00
2022-11-24T19:07:24.876Z,100.00
2022-11-24T19:09:53.755Z,100.00
2022-11-24T19:12:21.227Z,100.00
2022-11-24T19:14:48.678Z,100.00
2022-11-24T19:17:16.156Z,100.00
2022-11-24T19:19:43.661Z,100.00
2022-11-24T19:22:11.125Z,100.00
2022-11-24T19:24:38.836Z,100.00
2022-11-24T19:27:07.858Z,100.00
2022-11-24T19:29:37.943Z,100.00
2022-11-24T19:32:09.274Z,100.00
2022-11-24T19:34:37.121Z,100.00
2022-11-24T19:37:04.791Z,100.00
2022-11-24T19:39:32.335Z,100.00
2022-11-24T19:41:59.837Z,100.00
2022-11-24T19:44:28.738Z,100.00
2022-11-24T19:46:56.204Z,100.00
2022-11-24T19:49:23.664Z,100.00
2022-11-24T19:51:51.460Z,100.00
2022-11-24T19:54:18.963Z,100.00
2022-11-24T19:56:46.475Z,100.00
2022-11-24T19:59:14.135Z,100.00
2022-11-24T20:01:43.497Z,100.00
2022-11-24T20:04:12.374Z,100.00
2022-11-24T20:06:40.496Z,100.00
2022-11-24T20:09:09.081Z,100.00
2022-11-24T20:11:36.589Z,100.00
2022-11-24T20:14:04.253Z,100.00
2022-11-24T20:16:32.407Z,100.00
2022-11-24T20:19:01.786Z,100.00
2022-11-24T20:21:31.201Z,100.00
2022-11-24T20:23:59.480Z,100.00
2022-11-24T20:26:28.204Z,100.00
2022-11-24T20:28:56.400Z,100.00
2022-11-24T20:31:24.682Z,100.00
2022-11-24T20:33:52.285Z,100.00
2022-11-24T20:36:22.224Z,100.00
2022-11-24T20:38:50.118Z,100.00
2022-11-24T20:41:18.304Z,100.00
2022-11-24T20:43:45.944Z,100.00
2022-11-24T20:46:14.403Z,100.00
2022-11-24T20:48:41.948Z,100.00
2022-11-24T20:51:10.472Z,100.00
2022-11-24T20:53:39.387Z,100.00
2022-11-24T20:56:07.690Z,100.00
2022-11-24T20:58:35.512Z,100.00
2022-11-24T21:01:06.972Z,100.00
2022-11-24T21:03:37.252Z,100.00
2022-11-24T21:06:08.971Z,100.00
2022-11-24T21:08:37.367Z,100.00
2022-11-24T21:11:08.663Z,100.00
2022-11-24T21:13:36.536Z,100.00
2022-11-24T21:16:11.995Z,100.00
2022-11-24T21:18:39.596Z,100.00
2022-11-24T21:21:07.300Z,100.00
2022-11-24T21:23:34.823Z,100.00
2022-11-24T21:26:05.593Z,100.00
2022-11-24T21:28:34.804Z,100.00
2022-11-24T21:31:03.888Z,100.00
2022-11-24T21:33:31.396Z,100.00
2022-11-24T21:36:01.648Z,100.00
2022-11-24T21:38:29.118Z,100.00
2022-11-24T21:40:59.656Z,100.00
2022-11-24T21:43:27.942Z,100.00
2022-11-24T21:45:56.864Z,100.00
2022-11-24T21:48:24.420Z,100.00
2022-11-24T21:50:51.859Z,100.00
2022-11-24T21:53:19.343Z,100.00
2022-11-24T21:55:54.449Z,100.00
2022-11-24T21:58:22.511Z,100.00
2022-11-24T22:00:50.085Z,100.00
2022-11-24T22:03:19.021Z,100.00
2022-11-24T22:05:53.364Z,100.00
2022-11-24T22:08:20.984Z,100.00
2022-11-24T22:10:48.450Z,100.00
2022-11-24T22:13:16.052Z,100.00
2022-11-24T22:15:43.623Z,100.00
2022-11-24T22:18:11.176Z,100.00
2022-11-24T22:20:40.076Z,100.00
2022-11-24T22:23:07.843Z,100.00
2022-11-24T22:25:35.536Z,100.00
2022-11-24T22:28:03.042Z,100.00
2022-11-24T22:30:30.590Z,100.00
2022-11-24T22:32:58.133Z,100.00
2022-11-24T22:35:25.622Z,100.00
2022-11-24T22:37:54.432Z,100.00
2022-11-24T22:40:21.894Z,100.00
2022-11-24T22:42:49.393Z,100.00
2022-11-24T22:45:16.951Z,100.00
2022-11-24T22:47:44.395Z,100.00
2022-11-24T22:50:12.471Z,100.00
2022-11-24T22:52:40.398Z,100.00
2022-11-24T22:55:09.563Z,100.00
2022-11-24T22:57:37.080Z,100.00
2022-11-24T23:00:04.846Z,100.00
2022-11-24T23:02:32.455Z,100.00
2022-11-24T23:05:00.004Z,100.00
2022-11-24T23:07:27.497Z,100.00
2022-11-24T23:09:55.004Z,100.00
2022-11-24T23:12:23.902Z,100.00
2022-11-24T23:14:51.624Z,100.00
2022-11-24T23:17:19.094Z,100.00
2022-11-24T23:19:46.534Z,100.00
2022-11-24T23:22:14.048Z,100.00
2022-11-24T23:24:41.515Z,100.00
2022-11-24T23:27:09.052Z,100.00
2022-11-24T23:29:37.950Z,100.00
2022-11-24T23:32:05.783Z,100.00
2022-11-24T23:34:33.427Z,100.00
2022-11-24T23:37:02.313Z,100.00
2022-11-24T23:39:29.797Z,100.00
2022-11-24T23:41:57.379Z,100.00
2022-11-24T23:44:24.930Z,100.00
2022-11-24T23:46:53.739Z,100.00
2022-11-24T23:49:21.248Z,100.00
2022-11-24T23:51:48.816Z,100.00
2022-11-24T23:54:16.283Z,100.00
2022-11-24T23:56:43.734Z,100.00
2022-11-24T23:59:11.587Z,100.00
